createdAt,value
2023-01-04T00:00:30.785Z,10.27
2023-01-04T00:02:57.460Z,8.70
2023-01-04T00:05:24.035Z,7.60
2023-01-04T00:07:50.515Z,11.43
2023-01-04T00:10:17.029Z,9.50
2023-01-04T00:12:43.487Z,9.30
2023-01-04T00:15:10.230Z,7.30
2023-01-04T00:17:36.738Z,8.70
2023-01-04T00:20:03.276Z,7.80
2023-01-04T00:22:33.732Z,9.90
2023-01-04T00:25:00.356Z,6.00
2023-01-04T00:27:26.856Z,6.45
2023-01-04T00:29:53.364Z,5.95
2023-01-04T00:32:19.816Z,7.85
2023-01-04T00:34:46.354Z,4.68
2023-01-04T00:37:12.810Z,6.90
2023-01-04T00:39:39.329Z,5.40
2023-01-04T00:42:05.822Z,5.60
2023-01-04T00:44:34.102Z,6.60
2023-01-04T00:47:01.775Z,6.63
2023-01-04T00:49:29.370Z,5.32
2023-01-04T00:51:55.958Z,7.30
2023-01-04T00:54:22.982Z,9.52
2023-01-04T00:56:49.597Z,10.38
2023-01-04T00:59:17.537Z,7.30
2023-01-04T01:01:44.687Z,5.90
2023-01-04T01:04:15.569Z,6.05
2023-01-04T01:06:42.358Z,4.75
2023-01-04T01:09:09.595Z,6.85
2023-01-04T01:11:38.396Z,6.25
2023-01-04T01:14:05.201Z,6.30
2023-01-04T01:16:53.544Z,6.05
2023-01-04T01:19:18.174Z,3.38
2023-01-04T01:21:44.814Z,3.25
2023-01-04T01:24:15.923Z,3.42
2023-01-04T01:26:42.575Z,4.90
2023-01-04T01:29:09.077Z,3.33
2023-01-04T01:31:35.626Z,3.60
2023-01-04T01:34:02.672Z,4.47
2023-01-04T01:36:29.288Z,3.63
2023-01-04T01:38:56.070Z,3.75
2023-01-04T01:41:30.475Z,5.03
2023-01-04T01:44:01.103Z,6.35
2023-01-04T01:46:30.479Z,5.10
2023-01-04T01:48:59.418Z,4.22
2023-01-04T01:51:26.863Z,3.40
2023-01-04T01:53:56.341Z,3.47
2023-01-04T01:56:22.969Z,3.90
2023-01-04T01:58:52.169Z,3.00
2023-01-04T02:01:18.866Z,2.83
2023-01-04T02:03:45.595Z,3.60
2023-01-04T02:06:13.632Z,2.50
2023-01-04T02:08:41.468Z,4.10
2023-01-04T02:11:08.457Z,3.15
2023-01-04T02:13:54.650Z,3.80
2023-01-04T02:16:21.166Z,3.38
2023-01-04T02:19:01.873Z,3.85
2023-01-04T02:21:34.191Z,3.10
2023-01-04T02:24:26.775Z,3.72
2023-01-04T02:27:15.547Z,3.22
2023-01-04T02:29:57.410Z,3.92
2023-01-04T02:32:26.692Z,4.93
2023-01-04T02:35:10.435Z,4.38
2023-01-04T02:37:41.376Z,3.85
2023-01-04T02:40:20.978Z,3.33
2023-01-04T02:43:09.541Z,2.20
2023-01-04T02:45:41.365Z,1.45
2023-01-04T02:48:26.831Z,1.10
2023-01-04T02:50:54.985Z,1.00
2023-01-04T02:53:23.429Z,0.80
2023-01-04T02:56:00.268Z,0.80
2023-01-04T02:58:29.757Z,0.50
2023-01-04T03:01:22.108Z,0.60
2023-01-04T03:04:24.919Z,0.20
2023-01-04T03:06:57.561Z,0.43
2023-01-04T03:09:26.851Z,0.55
2023-01-04T03:12:16.976Z,0.57
2023-01-04T03:15:00.419Z,0.73
2023-01-04T03:17:29.865Z,1.17
2023-01-04T03:19:58.306Z,0.70
2023-01-04T03:22:51.164Z,1.00
2023-01-04T03:25:38.191Z,0.93
2023-01-04T03:28:24.225Z,0.93
2023-01-04T03:31:15.567Z,1.05
2023-01-04T03:34:01.374Z,0.90
2023-01-04T03:36:48.130Z,1.17
2023-01-04T03:39:48.485Z,0.85
2023-01-04T03:42:40.655Z,0.77
2023-01-04T03:45:45.804Z,1.52
2023-01-04T03:48:33.574Z,2.05
2023-01-04T03:51:06.625Z,1.80
2023-01-04T03:53:40.616Z,2.10
2023-01-04T03:56:08.634Z,1.58
2023-01-04T03:58:35.453Z,1.58
2023-01-04T04:01:04.198Z,1.23
2023-01-04T04:03:49.849Z,1.15
2023-01-04T04:06:35.263Z,1.20
2023-01-04T04:09:01.887Z,1.38
2023-01-04T04:11:31.043Z,1.00
2023-01-04T04:13:57.854Z,1.13
2023-01-04T04:16:24.581Z,1.00
2023-01-04T04:18:51.112Z,1.10
2023-01-04T04:21:17.578Z,1.35
2023-01-04T04:23:44.681Z,0.93
2023-01-04T04:26:11.426Z,0.90
2023-01-04T04:28:38.437Z,1.10
2023-01-04T04:31:05.246Z,0.95
2023-01-04T04:33:31.771Z,1.20
2023-01-04T04:35:58.251Z,1.40
2023-01-04T04:38:24.735Z,1.20
2023-01-04T04:41:10.168Z,1.05
2023-01-04T04:43:36.636Z,0.60
2023-01-04T04:46:03.650Z,0.55
2023-01-04T04:48:30.235Z,0.50
2023-01-04T04:50:56.778Z,0.60
2023-01-04T04:53:23.352Z,0.40
2023-01-04T04:55:55.909Z,0.40
2023-01-04T04:58:22.380Z,0.35
2023-01-04T05:00:48.938Z,0.30
2023-01-04T05:03:15.572Z,0.30
2023-01-04T05:05:42.835Z,0.25
2023-01-04T05:08:09.562Z,0.20
2023-01-04T05:10:36.881Z,0.28
2023-01-04T05:13:05.045Z,0.20
2023-01-04T05:15:36.807Z,0.20
2023-01-04T05:18:04.373Z,0.20
2023-01-04T05:20:30.836Z,0.22
2023-01-04T05:22:57.484Z,0.10
2023-01-04T05:25:24.269Z,0.10
2023-01-04T05:27:50.943Z,0.20
2023-01-04T05:30:36.223Z,0.10
2023-01-04T05:33:03.448Z,0.20
2023-01-04T05:35:30.054Z,0.10
2023-01-04T05:37:56.641Z,0.25
2023-01-04T05:40:23.161Z,0.20
2023-01-04T05:42:50.040Z,0.10
2023-01-04T05:45:17.360Z,0.10
2023-01-04T05:47:43.884Z,0.22
2023-01-04T05:50:10.810Z,0.17
2023-01-04T05:52:37.531Z,0.20
2023-01-04T05:55:04.208Z,0.20
2023-01-04T05:57:30.708Z,0.20
2023-01-04T05:59:57.245Z,0.20
2023-01-04T06:02:25.201Z,0.20
2023-01-04T06:04:58.490Z,0.25
2023-01-04T06:07:26.130Z,0.10
2023-01-04T06:09:52.636Z,0.20
2023-01-04T06:12:19.243Z,0.20
2023-01-04T06:14:45.785Z,0.20
2023-01-04T06:17:13.822Z,0.20
2023-01-04T06:19:40.390Z,0.20
2023-01-04T06:22:07.469Z,0.20
2023-01-04T06:24:34.222Z,0.20
2023-01-04T06:27:01.301Z,0.20
2023-01-04T06:29:27.957Z,0.20
2023-01-04T06:31:54.648Z,0.25
2023-01-04T06:34:26.853Z,0.38
2023-01-04T06:36:57.109Z,0.20
2023-01-04T06:39:23.652Z,0.20
2023-01-04T06:41:50.096Z,0.30
2023-01-04T06:44:16.601Z,0.20
2023-01-04T06:46:43.109Z,0.20
2023-01-04T06:49:09.801Z,0.20
2023-01-04T06:51:36.435Z,0.10
2023-01-04T06:54:02.981Z,0.20
2023-01-04T06:56:31.099Z,0.30
2023-01-04T06:58:57.761Z,0.20
2023-01-04T07:01:24.523Z,0.20
2023-01-04T07:03:51.081Z,0.20
2023-01-04T07:06:17.626Z,0.20
2023-01-04T07:08:44.107Z,0.20
2023-01-04T07:11:10.579Z,0.20
2023-01-04T07:13:37.097Z,0.20
2023-01-04T07:16:03.679Z,0.32
2023-01-04T07:18:30.171Z,0.35
2023-01-04T07:20:56.761Z,0.30
2023-01-04T07:23:23.252Z,0.20
2023-01-04T07:25:49.746Z,0.20
2023-01-04T07:28:36.229Z,0.20
2023-01-04T07:31:06.900Z,0.20
2023-01-04T07:33:33.538Z,0.17
2023-01-04T07:36:04.024Z,0.20
2023-01-04T07:38:30.505Z,0.20
2023-01-04T07:40:57.317Z,0.20
2023-01-04T07:43:27.886Z,0.25
2023-01-04T07:45:55.217Z,0.20
2023-01-04T07:48:21.875Z,0.38
2023-01-04T07:50:49.223Z,0.30
2023-01-04T07:53:15.739Z,0.20
2023-01-04T07:55:42.244Z,0.20
2023-01-04T07:58:08.826Z,0.30
2023-01-04T08:00:35.330Z,0.20
2023-01-04T08:03:01.886Z,0.15
2023-01-04T08:05:28.463Z,0.20
2023-01-04T08:07:54.952Z,0.40
2023-01-04T08:10:21.457Z,0.30
2023-01-04T08:12:47.947Z,0.20
2023-01-04T08:15:15.383Z,0.20
2023-01-04T08:17:41.854Z,0.40
2023-01-04T08:20:08.418Z,0.20
2023-01-04T08:22:35.025Z,0.40
2023-01-04T08:25:01.777Z,1.00
2023-01-04T08:27:28.283Z,0.30
2023-01-04T08:29:54.859Z,0.30
2023-01-04T08:32:21.402Z,0.20
2023-01-04T08:34:47.954Z,0.40
2023-01-04T08:37:14.418Z,0.40
2023-01-04T08:39:44.148Z,0.30
2023-01-04T08:42:20.997Z,0.28
2023-01-04T08:44:59.147Z,0.30
2023-01-04T08:47:27.133Z,0.32
2023-01-04T08:49:53.690Z,0.95
2023-01-04T08:52:20.211Z,0.90
2023-01-04T08:54:46.699Z,0.60
2023-01-04T08:57:13.242Z,0.40
2023-01-04T08:59:39.747Z,0.52
2023-01-04T09:02:17.963Z,0.90
2023-01-04T09:04:44.547Z,0.60
2023-01-04T09:07:11.039Z,0.40
2023-01-04T09:09:37.504Z,0.40
2023-01-04T09:12:04.062Z,0.30
2023-01-04T09:14:30.570Z,0.17
2023-01-04T09:16:57.071Z,0.30
2023-01-04T09:19:23.708Z,0.25
2023-01-04T09:21:50.384Z,0.20
2023-01-04T09:24:17.094Z,0.20
2023-01-04T09:26:43.565Z,0.20
2023-01-04T09:29:10.771Z,0.20
2023-01-04T09:31:37.334Z,0.30
2023-01-04T09:34:19.193Z,0.50
2023-01-04T09:36:46.459Z,1.00
2023-01-04T09:39:21.105Z,0.50
2023-01-04T09:41:56.986Z,0.70
2023-01-04T09:47:33.187Z,0.52
2023-01-04T09:50:02.936Z,0.40
2023-01-04T09:52:48.204Z,0.35
2023-01-04T09:55:39.227Z,0.52
2023-01-04T09:58:29.573Z,0.50
2023-01-04T10:01:07.383Z,0.63
2023-01-04T10:03:38.915Z,0.57
2023-01-04T10:06:06.989Z,0.77
2023-01-04T10:08:34.145Z,0.40
2023-01-04T10:11:19.415Z,0.40
2023-01-04T10:14:04.236Z,0.50
2023-01-04T10:22:57.184Z,0.50
2023-01-04T10:25:33.255Z,0.60
2023-01-04T10:28:05.940Z,0.45
2023-01-04T10:30:41.649Z,1.30
2023-01-04T10:33:12.723Z,0.77
2023-01-04T10:35:41.090Z,0.60
2023-01-04T10:38:14.433Z,0.47
2023-01-04T10:40:41.458Z,0.63
2023-01-04T10:43:26.869Z,0.50
2023-01-04T10:45:57.176Z,0.82
2023-01-04T10:48:42.376Z,0.40
2023-01-04T10:51:10.572Z,0.50
2023-01-04T10:53:54.202Z,0.73
2023-01-04T10:56:27.106Z,0.60
2023-01-04T10:58:54.259Z,0.50
2023-01-04T11:01:30.267Z,0.35
2023-01-04T11:04:04.346Z,0.90
2023-01-04T11:06:36.157Z,1.08
2023-01-04T11:09:04.169Z,0.95
2023-01-04T11:11:30.631Z,0.70
2023-01-04T11:13:57.190Z,0.90
2023-01-04T11:16:23.857Z,0.77
2023-01-04T11:18:50.650Z,0.63
2023-01-04T11:21:18.742Z,0.70
2023-01-04T11:23:45.233Z,0.70
2023-01-04T11:26:19.767Z,0.52
2023-01-04T11:28:51.788Z,0.98
2023-01-04T11:31:21.134Z,1.08
2023-01-04T11:33:55.153Z,0.60
2023-01-04T11:36:38.936Z,0.60
2023-01-04T11:39:31.931Z,0.70
2023-01-04T11:42:03.265Z,0.50
2023-01-04T11:44:31.313Z,0.60
2023-01-04T11:47:16.621Z,0.70
2023-01-04T11:49:43.076Z,1.65
2023-01-04T11:52:28.223Z,0.90
2023-01-04T11:54:54.768Z,0.75
2023-01-04T11:57:21.686Z,0.82
2023-01-04T12:00:07.656Z,0.73
2023-01-04T12:05:29.666Z,0.85
2023-01-04T12:07:57.584Z,0.57
2023-01-04T12:10:27.168Z,0.70
2023-01-04T12:12:54.207Z,0.90
2023-01-04T12:15:27.583Z,1.30
2023-01-04T12:18:01.728Z,0.55
2023-01-04T12:20:28.778Z,0.80
2023-01-04T12:22:55.266Z,1.23
2023-01-04T12:25:27.881Z,0.52
2023-01-04T12:27:57.572Z,0.50
2023-01-04T12:30:34.335Z,0.68
2023-01-04T12:33:20.731Z,0.93
2023-01-04T12:36:22.601Z,1.27
2023-01-04T12:38:52.004Z,1.27
2023-01-04T12:41:19.303Z,1.70
2023-01-04T12:43:47.642Z,1.13
2023-01-04T12:46:48.352Z,1.33
2023-01-04T12:49:27.240Z,2.45
2023-01-04T12:55:00.697Z,1.42
2023-01-04T12:57:37.578Z,3.30
2023-01-04T13:00:12.641Z,3.75
2023-01-04T13:02:44.487Z,3.05
2023-01-04T13:08:08.921Z,2.50
2023-01-04T13:10:42.257Z,1.85
2023-01-04T13:13:17.629Z,3.30
2023-01-04T13:15:54.255Z,2.28
2023-01-04T13:18:23.521Z,1.70
2023-01-04T13:20:50.365Z,1.83
2023-01-04T13:23:17.131Z,1.42
2023-01-04T13:25:43.592Z,1.30
2023-01-04T13:28:17.420Z,1.33
2023-01-04T13:30:44.188Z,1.40
2023-01-04T13:33:29.585Z,1.40
2023-01-04T13:36:04.511Z,1.60
2023-01-04T13:38:32.043Z,1.40
2023-01-04T13:40:58.605Z,1.33
2023-01-04T13:43:28.051Z,1.10
2023-01-04T13:46:13.483Z,1.38
2023-01-04T13:48:41.470Z,2.28
2023-01-04T13:51:17.998Z,1.50
2023-01-04T13:53:54.575Z,1.50
2023-01-04T13:56:22.887Z,2.60
2023-01-04T13:58:49.461Z,2.28
2023-01-04T14:01:27.372Z,1.85
2023-01-04T14:03:58.227Z,1.85
2023-01-04T14:06:27.536Z,1.65
2023-01-04T14:09:06.396Z,1.50
2023-01-04T14:14:58.767Z,1.10
2023-01-04T14:17:34.680Z,1.40
2023-01-04T14:20:02.231Z,2.70
2023-01-04T14:22:36.008Z,1.60
2023-01-04T14:30:18.515Z,1.83
2023-01-04T14:33:14.394Z,2.40
2023-01-04T14:35:46.452Z,1.20
2023-01-04T14:38:19.116Z,1.05
2023-01-04T14:40:45.698Z,1.70
2023-01-04T14:43:30.885Z,0.75
2023-01-04T14:45:57.376Z,1.20
2023-01-04T14:48:24.276Z,1.83
2023-01-04T14:50:51.210Z,0.93
2023-01-04T14:53:19.233Z,1.50
2023-01-04T14:55:45.705Z,1.50
2023-01-04T14:58:12.199Z,1.17
2023-01-04T15:00:38.758Z,1.83
2023-01-04T15:03:05.392Z,1.85
2023-01-04T15:05:37.498Z,3.00
2023-01-04T15:08:04.517Z,2.88
2023-01-04T15:10:31.030Z,2.35
2023-01-04T15:13:00.592Z,2.53
2023-01-04T15:15:27.169Z,2.85
2023-01-04T15:17:53.668Z,3.55
2023-01-04T15:20:20.173Z,1.80
2023-01-04T15:22:46.746Z,1.83
2023-01-04T15:25:13.441Z,1.17
2023-01-04T15:27:42.522Z,1.42
2023-01-04T15:30:10.680Z,1.15
2023-01-04T15:32:37.140Z,1.60
2023-01-04T15:35:03.676Z,2.22
2023-01-04T15:37:30.252Z,1.00
2023-01-04T15:40:01.836Z,1.17
2023-01-04T15:42:48.106Z,1.13
2023-01-04T15:45:14.618Z,3.60
2023-01-04T15:47:41.062Z,7.40
2023-01-04T15:50:07.838Z,3.75
2023-01-04T15:52:34.454Z,1.92
2023-01-04T15:55:00.924Z,2.20
2023-01-04T15:57:27.391Z,1.45
2023-01-04T15:59:53.856Z,1.60
2023-01-04T16:02:20.470Z,1.20
2023-01-04T16:04:47.422Z,1.05
2023-01-04T16:07:13.954Z,1.30
2023-01-04T16:09:40.556Z,1.30
2023-01-04T16:12:25.793Z,1.17
2023-01-04T16:14:52.852Z,1.42
2023-01-04T16:17:19.562Z,2.72
2023-01-04T16:19:46.120Z,1.80
2023-01-04T16:22:12.658Z,1.23
2023-01-04T16:27:31.199Z,0.98
2023-01-04T16:30:04.687Z,1.80
2023-01-04T16:32:31.364Z,1.05
2023-01-04T16:34:57.905Z,1.48
2023-01-04T16:37:28.175Z,1.73
2023-01-04T16:40:06.174Z,1.40
2023-01-04T16:42:33.619Z,1.98
2023-01-04T16:45:00.122Z,1.65
2023-01-04T16:47:29.147Z,1.00
2023-01-04T16:49:55.706Z,1.30
2023-01-04T16:52:22.357Z,1.85
2023-01-04T16:54:49.001Z,1.05
2023-01-04T16:57:15.663Z,0.90
2023-01-04T16:59:42.407Z,2.20
2023-01-04T17:02:10.497Z,1.75
2023-01-04T17:04:37.108Z,2.22
2023-01-04T17:07:04.081Z,4.80
2023-01-04T17:09:30.571Z,2.90
2023-01-04T17:14:43.673Z,1.58
2023-01-04T17:17:10.300Z,2.10
2023-01-04T17:19:37.042Z,1.10
2023-01-04T17:22:03.580Z,0.80
2023-01-04T17:24:30.058Z,0.85
2023-01-04T17:26:56.552Z,0.98
2023-01-04T17:29:23.052Z,0.90
2023-01-04T17:31:49.785Z,0.80
2023-01-04T17:34:23.067Z,0.75
2023-01-04T17:36:50.084Z,0.70
2023-01-04T17:39:16.645Z,0.60
2023-01-04T17:41:43.345Z,0.50
2023-01-04T17:44:10.149Z,1.00
2023-01-04T17:46:37.333Z,1.17
2023-01-04T17:51:52.994Z,1.10
2023-01-04T17:54:20.976Z,0.80
2023-01-04T17:56:47.471Z,1.20
2023-01-04T17:59:14.183Z,0.90
2023-01-04T18:01:40.893Z,1.08
2023-01-04T18:04:09.117Z,0.93
2023-01-04T18:06:37.278Z,1.17
2023-01-04T18:09:05.447Z,1.23
2023-01-04T18:11:31.946Z,1.45
2023-01-04T18:13:58.895Z,1.00
2023-01-04T18:16:27.338Z,1.85
2023-01-04T18:18:55.255Z,1.52
2023-01-04T18:21:28.906Z,2.53
2023-01-04T18:27:20.461Z,1.98
2023-01-04T18:29:34.061Z,1.05
2023-01-04T18:32:00.723Z,1.30
2023-01-04T18:34:27.366Z,1.30
2023-01-04T18:36:53.977Z,1.38
2023-01-04T18:39:20.579Z,0.82
2023-01-04T18:41:47.187Z,1.02
2023-01-04T18:47:01.821Z,0.98
2023-01-04T18:49:28.331Z,1.00
2023-01-04T18:51:54.824Z,1.50
2023-01-04T18:54:21.744Z,3.85
2023-01-04T18:56:48.705Z,0.73
2023-01-04T18:59:17.434Z,0.80
2023-01-04T19:01:45.306Z,0.80
2023-01-04T19:04:12.827Z,0.70
2023-01-04T19:06:40.587Z,1.00
2023-01-04T19:09:07.750Z,0.88
2023-01-04T19:11:34.740Z,0.80
2023-01-04T19:14:01.556Z,0.88
2023-01-04T19:16:31.754Z,0.82
2023-01-04T19:19:01.670Z,1.05
2023-01-04T19:21:28.848Z,0.75
2023-01-04T19:23:55.714Z,0.63
2023-01-04T19:26:22.885Z,2.03
2023-01-04T19:28:49.842Z,0.93
2023-01-04T19:31:17.237Z,0.60
2023-01-04T19:33:43.806Z,0.80
2023-01-04T19:36:11.550Z,0.77
2023-01-04T19:38:54.644Z,0.60
2023-01-04T19:41:32.776Z,0.70
2023-01-04T19:44:04.180Z,1.10
2023-01-04T19:46:31.838Z,0.95
2023-01-04T19:48:58.779Z,0.80
2023-01-04T19:51:25.310Z,1.08
2023-01-04T19:53:51.848Z,1.10
2023-01-04T19:56:18.340Z,0.90
2023-01-04T19:58:45.197Z,0.82
2023-01-04T20:01:19.773Z,0.73
2023-01-04T20:03:47.012Z,0.82
2023-01-04T20:06:13.855Z,1.55
2023-01-04T20:08:40.651Z,0.98
2023-01-04T20:11:07.508Z,0.95
2023-01-04T20:13:35.581Z,1.00
2023-01-04T20:16:04.870Z,0.60
2023-01-04T20:18:31.519Z,1.45
2023-01-04T20:20:58.098Z,0.60
2023-01-04T20:23:24.671Z,0.80
2023-01-04T20:25:52.117Z,0.73
2023-01-04T20:28:20.007Z,2.38
2023-01-04T20:30:48.409Z,4.90
2023-01-04T20:33:15.036Z,4.10
2023-01-04T20:35:42.372Z,1.58
2023-01-04T20:38:10.065Z,1.60
2023-01-04T20:40:37.098Z,0.80
2023-01-04T20:43:22.081Z,4.47
2023-01-04T20:45:49.924Z,0.95
2023-01-04T20:48:16.529Z,2.58
2023-01-04T20:50:43.643Z,1.23
2023-01-04T20:53:11.589Z,2.05
2023-01-04T20:55:41.757Z,1.60
2023-01-04T20:58:09.060Z,0.82
2023-01-04T21:00:37.102Z,0.85
2023-01-04T21:03:04.454Z,1.27
2023-01-04T21:05:34.680Z,0.68
2023-01-04T21:08:01.127Z,1.00
2023-01-04T21:10:27.656Z,0.80
2023-01-04T21:12:54.120Z,4.78
2023-01-04T21:15:23.021Z,1.25
2023-01-04T21:17:49.479Z,0.90
2023-01-04T21:20:16.005Z,1.17
2023-01-04T21:22:42.548Z,1.35
2023-01-04T21:25:09.202Z,2.35
2023-01-04T21:27:35.980Z,1.20
2023-01-04T21:30:02.523Z,3.85
2023-01-04T21:32:30.475Z,1.45
2023-01-04T21:34:57.021Z,0.80
2023-01-04T21:37:24.878Z,0.93
2023-01-04T21:39:52.839Z,0.70
2023-01-04T21:42:19.515Z,0.82
2023-01-04T21:44:46.020Z,0.70
2023-01-04T21:47:12.480Z,0.70
2023-01-04T21:49:43.802Z,0.73
2023-01-04T21:52:11.126Z,0.50
2023-01-04T21:54:38.117Z,0.70
2023-01-04T21:57:04.909Z,0.50
2023-01-04T21:59:31.540Z,0.80
2023-01-04T22:01:58.120Z,1.15
2023-01-04T22:04:24.710Z,0.57
2023-01-04T22:06:51.229Z,0.90
2023-01-04T22:09:17.684Z,0.85
2023-01-04T22:11:45.170Z,0.50
2023-01-04T22:14:11.667Z,0.50
2023-01-04T22:16:38.562Z,0.60
2023-01-04T22:19:05.132Z,0.60
2023-01-04T22:21:31.669Z,0.57
2023-01-04T22:23:58.497Z,0.60
2023-01-04T22:26:25.063Z,0.77
2023-01-04T22:28:51.557Z,0.50
2023-01-04T22:31:18.121Z,0.47
2023-01-04T22:33:44.754Z,0.60
2023-01-04T22:36:21.605Z,0.80
2023-01-04T22:38:49.674Z,1.17
2023-01-04T22:41:17.154Z,0.50
2023-01-04T22:43:43.985Z,0.63
2023-01-04T22:46:12.500Z,1.08
2023-01-04T22:48:39.003Z,0.50
2023-01-04T22:51:12.830Z,0.80
2023-01-04T22:56:18.979Z,0.70
2023-01-04T22:58:52.591Z,0.93
2023-01-04T23:01:20.957Z,0.90
2023-01-04T23:03:48.645Z,0.65
2023-01-04T23:06:15.383Z,0.70
2023-01-04T23:08:41.897Z,0.60
2023-01-04T23:11:09.878Z,1.02
2023-01-04T23:13:36.393Z,0.60
2023-01-04T23:16:05.540Z,0.80
2023-01-04T23:18:32.867Z,0.45
2023-01-04T23:20:59.368Z,1.23
2023-01-04T23:23:25.968Z,1.10
2023-01-04T23:25:52.508Z,0.40
2023-01-04T23:28:18.986Z,1.75
2023-01-04T23:30:45.531Z,0.68
2023-01-04T23:33:12.043Z,0.98
2023-01-04T23:35:38.516Z,0.60
2023-01-04T23:38:05.020Z,0.63
2023-01-04T23:40:31.617Z,0.52
2023-01-04T23:42:59.561Z,0.50
2023-01-04T23:45:26.599Z,2.30
2023-01-04T23:47:53.271Z,0.80
2023-01-04T23:50:20.444Z,0.50
2023-01-04T23:52:46.911Z,0.45
2023-01-04T23:55:13.379Z,0.52
2023-01-04T23:57:39.906Z,0.60
